Time;durP1;ratioP1;P1;durP2;ratioP2;P2;SDS_P1;SDS_P2;PMS_P1;PMS_P2;Temp;Humidity;BMP_temperature;BMP_pressure;BME280_temperature;BME280_humidity;BME280_pressure;Samples;Min_cycle;Max_cycle;Signal;HPM_P1;HPM_P2
2022/07/07 00:01:29;;;;;;;3.22;1.58;;;;;;;11.97;70.21;97969.09;5026725;28;20047;-65
2022/07/07 00:03:57;;;;;;;2.88;1.67;;;;;;;11.92;70.67;97971.75;5026015;28;20420;-66
2022/07/07 00:06:23;;;;;;;5.55;1.67;;;;;;;11.77;71.13;97972.31;5019669;28;20050;-66
2022/07/07 00:08:54;;;;;;;3.50;1.63;;;;;;;11.67;71.81;97965.63;5019364;28;20060;-65
2022/07/07 00:11:22;;;;;;;6.53;1.95;;;;;;;11.68;72.00;97969.16;5030010;28;20049;-65
2022/07/07 00:13:49;;;;;;;3.30;1.98;;;;;;;11.69;71.87;97960.78;5030715;28;20057;-66
2022/07/07 00:16:15;;;;;;;7.78;1.60;;;;;;;11.67;71.99;97962.94;5030131;28;20042;-66
2022/07/07 00:18:43;;;;;;;3.85;1.63;;;;;;;11.65;72.21;97964.25;5030787;28;20431;-65
2022/07/07 00:21:10;;;;;;;5.22;1.60;;;;;;;11.74;72.05;97957.34;5030774;28;20525;-66
2022/07/07 00:23:36;;;;;;;4.47;1.83;;;;;;;11.84;71.70;97965.63;5030053;28;20389;-65
2022/07/07 00:26:03;;;;;;;4.80;1.90;;;;;;;11.91;71.48;97956.53;5030209;28;20042;-66
2022/07/07 00:28:31;;;;;;;3.97;1.55;;;;;;;11.87;71.64;97956.19;5030267;28;20045;-66
2022/07/07 00:30:58;;;;;;;6.63;1.83;;;;;;;11.96;71.13;97954.72;5012457;28;20053;-66
2022/07/07 00:33:24;;;;;;;5.72;1.70;;;;;;;12.03;70.73;97956.44;5048146;28;20056;-66
2022/07/07 00:35:51;;;;;;;4.28;1.70;;;;;;;12.16;70.32;97953.41;5044648;28;20045;-66
2022/07/07 00:38:18;;;;;;;3.90;1.80;;;;;;;12.21;70.25;97942.63;5025018;28;20041;-65
2022/07/07 00:40:52;;;;;;;3.20;1.33;;;;;;;12.20;70.38;97943.72;5029700;28;20045;-66
2022/07/07 00:43:20;;;;;;;3.08;1.67;;;;;;;12.23;70.02;97942.38;5030636;28;20121;-65
2022/07/07 00:45:48;;;;;;;4.22;1.65;;;;;;;12.20;70.07;97940.19;5028172;28;20053;-66
2022/07/07 00:48:17;;;;;;;4.15;1.52;;;;;;;12.22;70.26;97940.75;5029984;28;20067;-66
2022/07/07 00:50:45;;;;;;;4.22;1.60;;;;;;;12.26;70.38;97935.63;5030239;28;20044;-65
2022/07/07 00:53:12;;;;;;;4.65;1.55;;;;;;;12.17;70.59;97930.63;5029687;28;20406;-65
2022/07/07 00:55:39;;;;;;;3.40;1.60;;;;;;;12.18;70.28;97926.03;5029223;28;20052;-66
2022/07/07 00:58:06;;;;;;;7.43;1.95;;;;;;;12.26;69.91;97931.03;5029580;28;20529;-65
2022/07/07 01:00:33;;;;;;;9.70;2.45;;;;;;;12.22;70.15;97932.59;5028444;28;20045;-66
2022/07/07 01:03:01;;;;;;;2.85;1.88;;;;;;;12.21;70.45;97930.97;5029219;28;20042;-66
2022/07/07 01:05:28;;;;;;;7.13;1.80;;;;;;;12.23;70.26;97924.22;5029296;28;20065;-66
2022/07/07 01:07:55;;;;;;;3.05;1.65;;;;;;;12.25;70.04;97918.53;5011947;28;20091;-66
2022/07/07 01:10:22;;;;;;;5.57;1.80;;;;;;;12.29;70.27;97918.84;5018603;28;20045;-66
2022/07/07 01:12:48;;;;;;;5.63;1.80;;;;;;;12.17;70.29;97913.53;5030876;28;20501;-65
2022/07/07 01:15:15;;;;;;;3.35;1.65;;;;;;;12.20;70.56;97915.75;5027357;28;20505;-66
2022/07/07 01:17:42;;;;;;;5.47;1.48;;;;;;;12.18;70.64;97921.44;5029335;28;20054;-66
2022/07/07 01:20:10;;;;;;;5.65;2.22;;;;;;;12.24;70.50;97925.06;5028317;28;20108;-66
2022/07/07 01:22:38;;;;;;;4.72;1.80;;;;;;;12.16;70.84;97917.31;5029392;28;20056;-66
2022/07/07 01:25:06;;;;;;;5.20;1.77;;;;;;;12.08;71.44;97918.53;5028682;28;20049;-66
2022/07/07 01:27:32;;;;;;;4.88;2.10;;;;;;;12.14;71.43;97909.44;5029226;28;20408;-66
2022/07/07 01:29:59;;;;;;;5.78;1.90;;;;;;;12.17;71.17;97910.81;5029055;28;20049;-66
2022/07/07 01:32:26;;;;;;;5.80;2.35;;;;;;;12.20;70.79;97908.41;5040380;28;20041;-66
2022/07/07 01:34:53;;;;;;;3.08;1.80;;;;;;;12.24;70.76;97903.34;5048828;28;20531;-66
2022/07/07 01:37:20;;;;;;;4.13;1.73;;;;;;;12.23;71.00;97896.22;5026036;28;20049;-65
2022/07/07 01:39:48;;;;;;;3.53;1.42;;;;;;;12.27;70.89;97907.44;5029000;28;20095;-65
2022/07/07 01:42:14;;;;;;;6.13;2.00;;;;;;;12.27;70.78;97897.38;5029041;28;20041;-65
2022/07/07 01:44:42;;;;;;;4.78;1.83;;;;;;;12.26;70.80;97886.75;5028032;28;20038;-66
2022/07/07 01:47:10;;;;;;;5.80;2.83;;;;;;;12.16;71.35;97884.75;5028976;28;20041;-65
2022/07/07 01:49:38;;;;;;;5.50;2.30;;;;;;;12.13;71.43;97882.53;5028923;28;20419;-65
2022/07/07 01:52:05;;;;;;;3.72;1.70;;;;;;;12.11;71.78;97880.06;5028877;28;20042;-65
2022/07/07 01:54:33;;;;;;;3.17;2.00;;;;;;;12.16;71.62;97885.56;5028574;28;20052;-66
2022/07/07 01:57:00;;;;;;;5.32;2.03;;;;;;;12.16;71.52;97888.28;5028400;28;20037;-66
2022/07/07 01:59:27;;;;;;;4.72;1.95;;;;;;;12.12;71.89;97886.31;5029244;28;20412;-66
2022/07/07 02:01:54;;;;;;;5.95;2.65;;;;;;;12.07;72.31;97887.06;5028450;28;20046;-66
2022/07/07 02:04:20;;;;;;;6.10;1.88;;;;;;;12.10;71.65;97875.72;5028416;28;20041;-66
2022/07/07 02:06:48;;;;;;;3.10;1.63;;;;;;;12.01;72.37;97875.25;5018269;28;20045;-66
2022/07/07 02:09:14;;;;;;;2.78;1.67;;;;;;;12.05;72.43;97884.59;5021653;28;20042;-66
2022/07/07 02:11:41;;;;;;;3.03;2.20;;;;;;;12.01;72.22;97882.59;5029106;28;20053;-66
2022/07/07 02:14:08;;;;;;;7.00;1.70;;;;;;;12.05;71.84;97884.59;5027609;28;20041;-66
2022/07/07 02:16:36;;;;;;;4.32;2.05;;;;;;;12.07;72.21;97884.34;5028289;28;20044;-66
2022/07/07 02:19:08;;;;;;;3.50;1.80;;;;;;;11.96;72.95;97886.06;5028361;28;20128;-66
2022/07/07 02:21:35;;;;;;;5.68;2.10;;;;;;;12.04;72.10;97885.63;5028699;28;20683;-66
2022/07/07 02:24:03;;;;;;;5.15;2.10;;;;;;;12.13;71.69;97886.06;5028681;28;20404;-66
2022/07/07 02:26:32;;;;;;;3.45;2.33;;;;;;;12.16;71.27;97887.47;5042939;28;20042;-66
2022/07/07 02:29:00;;;;;;;5.28;1.95;;;;;;;12.22;71.09;97894.59;5045249;28;20113;-66
2022/07/07 02:31:27;;;;;;;4.28;1.73;;;;;;;12.31;70.71;97890.38;5047799;28;20056;-66
2022/07/07 02:33:53;;;;;;;4.97;1.80;;;;;;;12.27;70.69;97893.88;5063958;28;20049;-66
2022/07/07 02:36:20;;;;;;;4.22;1.95;;;;;;;12.24;71.33;97889.75;5034602;28;20046;-65
2022/07/07 02:38:48;;;;;;;4.93;2.00;;;;;;;12.12;71.62;97889.84;5026710;28;20049;-65
2022/07/07 02:41:14;;;;;;;4.20;1.80;;;;;;;12.03;72.05;97886.72;5027895;28;20042;-66
2022/07/07 02:43:41;;;;;;;3.08;1.92;;;;;;;11.95;72.83;97882.50;5028099;28;20049;-65
2022/07/07 02:46:07;;;;;;;4.65;1.83;;;;;;;11.94;72.57;97883.59;5027699;28;20041;-66
2022/07/07 02:48:34;;;;;;;3.65;1.70;;;;;;;11.93;72.78;97878.41;5027627;28;20049;-66
2022/07/07 02:51:01;;;;;;;2.80;1.75;;;;;;;12.02;72.30;97868.75;5027819;28;20041;-66
2022/07/07 02:53:27;;;;;;;3.85;1.88;;;;;;;12.06;72.26;97864.50;5027428;28;20046;-65
2022/07/07 02:55:55;;;;;;;4.25;2.00;;;;;;;12.07;71.95;97874.31;5026867;28;20041;-66
2022/07/07 02:58:23;;;;;;;4.30;1.70;;;;;;;12.04;71.92;97871.22;5026158;28;20501;-65
2022/07/07 03:00:51;;;;;;;7.25;2.03;;;;;;;12.05;72.11;97872.91;5026975;28;20037;-65
2022/07/07 03:03:18;;;;;;;3.33;1.77;;;;;;;12.08;71.61;97873.25;5027725;28;20045;-64
2022/07/07 03:05:45;;;;;;;3.15;1.95;;;;;;;12.10;71.69;97868.38;5025340;28;20053;-66
2022/07/07 03:08:12;;;;;;;3.45;1.73;;;;;;;12.19;70.93;97867.94;5011669;28;20052;-66
2022/07/07 03:10:39;;;;;;;3.33;1.85;;;;;;;12.15;71.33;97858.66;5024005;28;20052;-66
2022/07/07 03:13:06;;;;;;;3.15;1.70;;;;;;;12.10;71.61;97849.38;5027513;28;20041;-65
2022/07/07 03:15:32;;;;;;;4.05;2.08;;;;;;;12.00;72.24;97859.22;5026592;28;20045;-66
2022/07/07 03:17:59;;;;;;;2.67;1.60;;;;;;;12.03;72.32;97858.75;5027107;28;20041;-65
2022/07/07 03:20:26;;;;;;;5.45;2.05;;;;;;;12.07;72.03;97851.78;5027436;28;20125;-66
2022/07/07 03:22:52;;;;;;;4.88;1.90;;;;;;;12.19;71.11;97857.09;5027779;28;20436;-66
2022/07/07 03:25:19;;;;;;;4.32;1.80;;;;;;;12.33;70.80;97852.94;5027131;28;20045;-66
2022/07/07 03:27:46;;;;;;;6.47;2.05;;;;;;;12.49;69.98;97855.84;5026796;28;20303;-65
2022/07/07 03:30:13;;;;;;;2.88;1.70;;;;;;;12.53;69.38;97853.47;5026959;28;20084;-65
2022/07/07 03:32:40;;;;;;;2.55;1.80;;;;;;;12.61;69.15;97856.53;5039154;28;20128;-65
2022/07/07 03:35:09;;;;;;;2.85;1.55;;;;;;;12.63;69.18;97844.63;5046197;28;20098;-65
2022/07/07 03:37:36;;;;;;;5.25;1.83;;;;;;;12.61;69.37;97845.66;5016236;28;20194;-66
2022/07/07 03:40:04;;;;;;;4.82;1.85;;;;;;;12.54;70.07;97844.22;5024935;28;20719;-66
2022/07/07 03:42:31;;;;;;;4.80;1.70;;;;;;;12.51;70.25;97845.56;5029640;28;20053;-65
2022/07/07 03:44:58;;;;;;;7.78;2.60;;;;;;;12.49;70.42;97845.81;5019409;28;20053;-66
2022/07/07 03:47:25;;;;;;;3.20;1.63;;;;;;;12.53;70.59;97851.53;5043307;28;20037;-65
2022/07/07 03:49:51;;;;;;;3.17;1.73;;;;;;;12.49;70.66;97839.53;5038490;28;20045;-66
2022/07/07 03:52:18;;;;;;;7.03;1.95;;;;;;;12.48;70.98;97844.19;5044659;28;20131;-66
2022/07/07 03:54:44;;;;;;;5.47;2.10;;;;;;;12.46;71.60;97837.34;5043628;28;20389;-66
2022/07/07 03:57:11;;;;;;;4.63;2.22;;;;;;;12.54;71.10;97841.50;5042063;28;20047;-66
2022/07/07 03:59:38;;;;;;;3.78;1.90;;;;;;;12.58;71.12;97839.94;5041904;28;20072;-66
2022/07/07 04:02:05;;;;;;;5.10;1.85;;;;;;;12.54;70.87;97838.78;5029041;28;20045;-66
2022/07/07 04:04:31;;;;;;;4.85;1.88;;;;;;;12.55;71.02;97835.84;5027173;28;20041;-66
2022/07/07 04:06:58;;;;;;;3.97;1.90;;;;;;;12.56;70.85;97837.47;5014166;28;20046;-66
2022/07/07 04:09:25;;;;;;;3.65;1.90;;;;;;;12.51;70.84;97839.28;5020892;28;20377;-65
2022/07/07 04:11:52;;;;;;;5.82;1.70;;;;;;;12.58;69.91;97848.09;5025842;28;20327;-66
2022/07/07 04:14:18;;;;;;;3.58;1.80;;;;;;;12.65;68.38;97850.59;5024953;28;20051;-66
2022/07/07 04:16:45;;;;;;;4.00;1.42;;;;;;;12.74;67.66;97851.78;5026058;28;20047;-66
2022/07/07 04:19:11;;;;;;;3.08;1.38;;;;;;;12.82;67.68;97845.91;5026317;28;20045;-66
2022/07/07 04:21:38;;;;;;;2.72;1.52;;;;;;;12.79;68.38;97846.41;5026599;28;20060;-66
2022/07/07 04:24:05;;;;;;;3.33;1.60;;;;;;;12.83;68.41;97838.59;5025395;28;20148;-66
2022/07/07 04:26:32;;;;;;;5.15;2.35;;;;;;;12.91;67.49;97840.03;5026226;28;20069;-66
2022/07/07 04:28:58;;;;;;;6.07;1.67;;;;;;;12.95;67.42;97836.53;5024648;28;20049;-66
2022/07/07 04:31:25;;;;;;;3.13;1.38;;;;;;;12.91;67.61;97835.41;5034136;28;20042;-66
2022/07/07 04:33:52;;;;;;;3.40;1.50;;;;;;;12.93;67.65;97827.00;5030453;28;20571;-66
2022/07/07 04:36:18;;;;;;;9.73;2.13;;;;;;;12.79;68.28;97823.88;5023547;28;20084;-68
2022/07/07 04:38:45;;;;;;;2.90;1.58;;;;;;;12.80;68.20;97830.94;5033718;28;20195;-66
2022/07/07 04:41:12;;;;;;;4.15;1.77;;;;;;;12.93;66.90;97833.25;5043651;28;20132;-66
2022/07/07 04:43:38;;;;;;;3.72;1.42;;;;;;;13.09;66.78;97845.09;5031054;28;20144;-66
2022/07/07 04:46:05;;;;;;;2.85;1.30;;;;;;;13.20;66.34;97847.94;5018440;28;20069;-66
2022/07/07 04:48:32;;;;;;;4.15;1.70;;;;;;;13.24;66.14;97833.53;5031331;28;20037;-66
2022/07/07 04:50:58;;;;;;;3.22;1.70;;;;;;;13.23;66.50;97836.53;5043977;28;20045;-66
2022/07/07 04:53:25;;;;;;;2.85;1.48;;;;;;;13.32;66.28;97821.38;5037462;28;20042;-66
2022/07/07 04:55:52;;;;;;;2.67;1.60;;;;;;;13.37;66.56;97829.59;5041205;28;20041;-66
2022/07/07 04:58:19;;;;;;;3.58;1.55;;;;;;;13.38;66.32;97823.06;5040319;28;20547;-65
2022/07/07 05:00:45;;;;;;;3.92;1.90;;;;;;;13.39;66.37;97821.16;5027221;28;20049;-66
2022/07/07 05:03:12;;;;;;;3.35;1.27;;;;;;;13.48;66.02;97822.38;5002823;28;20042;-66
2022/07/07 05:05:38;;;;;;;4.45;1.90;;;;;;;13.55;65.87;97822.13;5020851;28;20089;-66
2022/07/07 05:08:05;;;;;;;5.07;1.75;;;;;;;13.59;65.66;97808.81;5028607;28;20041;-65
2022/07/07 05:10:32;;;;;;;2.90;1.40;;;;;;;13.75;65.17;97815.22;5040539;28;20052;-66
2022/07/07 05:12:58;;;;;;;3.78;1.20;;;;;;;13.82;65.36;97817.72;5028292;28;20061;-65
2022/07/07 05:15:26;;;;;;;4.38;1.60;;;;;;;13.87;65.27;97815.00;5024757;28;20060;-66
2022/07/07 05:17:52;;;;;;;3.13;1.48;;;;;;;13.95;64.40;97816.41;5024150;28;20413;-66
2022/07/07 05:20:25;;;;;;;3.17;1.58;;;;;;;14.10;64.73;97816.50;5029683;28;20053;-65
2022/07/07 05:22:51;;;;;;;6.82;1.50;;;;;;;14.16;63.08;97815.44;5030906;28;20083;-65
2022/07/07 05:25:18;;;;;;;2.80;1.30;;;;;;;14.24;62.78;97811.41;5036555;28;20037;-65
2022/07/07 05:27:44;;;;;;;2.20;1.15;;;;;;;14.23;63.29;97814.41;5037042;28;20079;-65
2022/07/07 05:30:19;;;;;;;3.95;1.23;;;;;;;14.33;62.22;97814.44;5042836;28;20056;-65
2022/07/07 05:32:46;;;;;;;2.92;1.40;;;;;;;14.44;62.03;97816.13;5030202;28;20110;-65
2022/07/07 05:35:12;;;;;;;3.47;1.67;;;;;;;14.53;61.28;97818.34;5045341;28;20424;-65
2022/07/07 05:37:41;;;;;;;1.60;1.20;;;;;;;14.74;60.54;97807.50;5024984;28;20056;-66
2022/07/07 05:40:08;;;;;;;3.10;1.33;;;;;;;15.00;59.97;97811.13;5044336;28;20053;-65
2022/07/07 05:42:35;;;;;;;2.50;1.20;;;;;;;15.24;58.51;97807.06;5046091;28;20054;-66
2022/07/07 05:45:01;;;;;;;4.05;1.40;;;;;;;15.57;58.19;97802.16;5041870;28;20052;-65
2022/07/07 05:47:28;;;;;;;5.38;1.27;;;;;;;15.83;57.67;97808.41;5039371;28;20048;-65
2022/07/07 05:49:54;;;;;;;2.50;1.20;;;;;;;16.01;57.41;97805.38;5027983;28;20048;-65
2022/07/07 05:52:21;;;;;;;6.32;1.30;;;;;;;15.98;57.06;97795.81;5026919;28;20045;-66
2022/07/07 05:54:47;;;;;;;4.63;1.17;;;;;;;16.10;57.14;97804.53;5031632;28;20049;-66
2022/07/07 05:57:14;;;;;;;3.60;1.10;;;;;;;16.35;56.95;97807.47;5033540;28;20053;-66
2022/07/07 05:59:41;;;;;;;2.90;1.10;;;;;;;16.33;56.88;97806.94;5026897;28;20041;-65
2022/07/07 06:02:07;;;;;;;3.28;1.25;;;;;;;16.20;57.46;97806.44;5025142;28;20149;-66
2022/07/07 06:04:34;;;;;;;3.60;1.27;;;;;;;16.00;57.49;97807.31;5039892;28;20474;-66
2022/07/07 06:07:01;;;;;;;2.83;1.23;;;;;;;16.09;57.35;97818.47;5014322;28;20064;-66
2022/07/07 06:09:27;;;;;;;5.05;1.58;;;;;;;16.14;57.74;97815.72;5032507;28;20046;-66
2022/07/07 06:11:54;;;;;;;2.08;1.50;;;;;;;16.29;57.82;97805.84;5026926;28;20061;-66
2022/07/07 06:14:21;;;;;;;8.23;1.70;;;;;;;16.49;57.39;97807.69;5019680;28;20052;-66
2022/07/07 06:16:47;;;;;;;3.42;1.42;;;;;;;16.83;56.62;97809.69;5046444;28;20040;-65
2022/07/07 06:19:14;;;;;;;3.35;1.20;;;;;;;17.06;55.35;97812.84;5018312;28;20037;-66
2022/07/07 06:21:41;;;;;;;3.85;1.27;;;;;;;17.25;55.10;97804.78;5033340;28;20043;-65
2022/07/07 06:24:09;;;;;;;3.63;1.00;;;;;;;17.62;53.93;97797.09;5027082;28;20049;-66
2022/07/07 06:26:36;;;;;;;4.25;1.10;;;;;;;17.53;53.48;97793.34;5025492;28;20306;-65
2022/07/07 06:29:03;;;;;;;4.20;1.02;;;;;;;17.62;52.92;97788.09;5043969;28;20471;-66
2022/07/07 06:31:30;;;;;;;5.53;1.35;;;;;;;17.62;52.78;97786.13;5037117;28;20052;-66
2022/07/07 06:33:57;;;;;;;2.90;1.15;;;;;;;17.48;53.56;97793.41;5046107;28;20048;-66
2022/07/07 06:36:23;;;;;;;4.32;1.42;;;;;;;17.78;54.27;97783.25;5025638;28;20050;-66
2022/07/07 06:38:50;;;;;;;2.13;1.10;;;;;;;17.94;53.63;97789.41;5031507;28;20071;-66
2022/07/07 06:41:16;;;;;;;3.88;1.35;;;;;;;18.14;53.59;97788.38;5032536;28;20519;-66
2022/07/07 06:43:43;;;;;;;4.22;1.40;;;;;;;18.41;52.94;97794.38;5039024;28;20049;-66
2022/07/07 06:46:10;;;;;;;4.07;1.20;;;;;;;18.55;51.50;97784.34;5039237;28;20393;-65
2022/07/07 06:48:36;;;;;;;3.30;1.20;;;;;;;18.69;50.99;97780.88;5012451;28;20117;-66
2022/07/07 06:51:03;;;;;;;4.07;1.30;;;;;;;18.73;50.73;97790.13;5026152;28;20521;-66
2022/07/07 06:53:30;;;;;;;6.70;1.45;;;;;;;18.52;50.77;97792.31;5025605;28;20084;-65
2022/07/07 06:55:56;;;;;;;2.40;1.23;;;;;;;18.67;50.53;97786.66;5039119;28;20145;-66
2022/07/07 06:58:23;;;;;;;2.60;1.15;;;;;;;18.57;50.66;97782.09;5032616;28;20052;-66
2022/07/07 07:00:50;;;;;;;4.03;1.65;;;;;;;18.66;50.25;97793.25;5040556;28;20095;-66
2022/07/07 07:03:16;;;;;;;4.05;1.20;;;;;;;18.81;49.76;97792.22;5032738;28;20049;-65
2022/07/07 07:05:43;;;;;;;3.55;1.30;;;;;;;19.02;49.34;97804.81;5030633;28;20037;-66
2022/07/07 07:08:10;;;;;;;3.17;1.20;;;;;;;19.31;48.70;97799.19;5026397;28;20051;-65
2022/07/07 07:10:36;;;;;;;5.93;1.75;;;;;;;19.70;47.76;97805.41;5039190;28;20078;-66
2022/07/07 07:13:03;;;;;;;4.82;1.30;;;;;;;19.89;46.79;97804.53;5025678;28;20061;-65
2022/07/07 07:15:30;;;;;;;3.03;1.30;;;;;;;19.70;47.97;97797.16;5039331;28;20048;-66
2022/07/07 07:17:57;;;;;;;7.60;1.30;;;;;;;19.33;47.80;97805.19;5045108;28;20049;-66
2022/07/07 07:20:24;;;;;;;5.25;1.20;;;;;;;19.16;48.92;97802.97;5042075;28;20433;-65
2022/07/07 07:22:51;;;;;;;4.85;1.35;;;;;;;19.22;49.51;97800.97;5023421;28;20041;-66
2022/07/07 07:25:18;;;;;;;4.80;1.50;;;;;;;19.05;49.57;97809.72;5026876;28;20056;-65
2022/07/07 07:27:45;;;;;;;1.85;0.98;;;;;;;19.14;49.48;97804.41;5044556;28;20049;-65
2022/07/07 07:30:14;;;;;;;6.68;1.58;;;;;;;19.24;49.83;97817.97;5042997;28;20048;-65
2022/07/07 07:32:42;;;;;;;4.57;1.70;;;;;;;19.23;50.02;97814.41;5028883;28;20125;-66
2022/07/07 07:35:09;;;;;;;2.75;1.20;;;;;;;19.55;49.07;97822.13;5028167;28;20053;-66
2022/07/07 07:37:38;;;;;;;4.70;1.33;;;;;;;19.55;49.32;97820.22;5029476;28;20111;-66
2022/07/07 07:40:10;;;;;;;4.93;1.60;;;;;;;19.38;48.79;97822.69;5042947;28;20055;-66
2022/07/07 07:42:38;;;;;;;6.18;2.67;;;;;;;19.43;49.56;97825.34;5044820;28;20483;-66
2022/07/07 07:45:11;;;;;;;4.72;1.42;;;;;;;19.10;49.81;97826.94;5040329;28;20049;-66
2022/07/07 07:47:39;;;;;;;5.45;2.22;;;;;;;19.01;50.58;97844.34;5024985;28;20507;-66
2022/07/07 07:50:07;;;;;;;3.85;1.55;;;;;;;18.54;51.68;97847.69;5033455;28;20061;-66
2022/07/07 07:52:34;;;;;;;7.45;2.17;;;;;;;18.44;52.13;97841.22;5037337;28;20056;-66
2022/07/07 07:55:00;;;;;;;2.45;1.40;;;;;;;18.38;52.47;97841.56;5042140;28;20041;-66
2022/07/07 07:57:27;;;;;;;5.50;1.60;;;;;;;18.26;53.26;97844.72;5038895;28;20128;-65
2022/07/07 07:59:54;;;;;;;8.70;2.53;;;;;;;18.34;53.34;97855.03;5029861;28;20041;-66
2022/07/07 08:02:20;;;;;;;5.25;1.70;;;;;;;18.09;53.66;97853.41;5027234;28;20045;-66
2022/07/07 08:04:47;;;;;;;4.38;1.35;;;;;;;18.11;54.52;97854.75;5027687;28;20056;-65
2022/07/07 08:07:13;;;;;;;4.00;1.55;;;;;;;17.89;54.52;97861.50;5012617;28;20077;-66
2022/07/07 08:09:40;;;;;;;4.38;1.60;;;;;;;17.74;55.22;97862.47;5023134;28;20053;-66
2022/07/07 08:12:07;;;;;;;8.25;2.00;;;;;;;17.86;55.29;97853.03;5026894;28;20056;-66
2022/07/07 08:14:33;;;;;;;4.22;1.95;;;;;;;17.87;55.22;97854.69;5025002;28;20056;-66
2022/07/07 08:17:00;;;;;;;7.32;1.60;;;;;;;17.95;55.49;97854.06;5034762;28;20064;-66
2022/07/07 08:19:27;;;;;;;5.53;1.70;;;;;;;17.90;56.13;97838.47;5044324;28;20091;-66
2022/07/07 08:21:53;;;;;;;7.82;2.00;;;;;;;17.91;56.13;97837.38;5039603;28;20068;-65
2022/07/07 08:24:20;;;;;;;3.97;2.05;;;;;;;18.14;55.53;97829.47;5015124;28;20038;-66
2022/07/07 08:26:48;;;;;;;4.43;2.15;;;;;;;18.32;54.95;97825.19;5043106;28;20048;-66
2022/07/07 08:29:14;;;;;;;5.70;2.38;;;;;;;19.10;54.46;97824.19;5046567;28;20049;-65
2022/07/07 08:31:41;;;;;;;5.38;2.90;;;;;;;19.04;54.75;97825.34;5034103;28;20036;-66
2022/07/07 08:34:08;;;;;;;6.05;3.08;;;;;;;19.29;54.23;97809.66;5035885;28;20057;-67
2022/07/07 08:36:35;;;;;;;6.15;3.58;;;;;;;19.80;52.72;97828.31;5042190;28;20452;-66
2022/07/07 08:39:02;;;;;;;5.43;3.05;;;;;;;20.23;52.66;97830.84;5037913;28;20038;-66
2022/07/07 08:41:29;;;;;;;5.93;4.00;;;;;;;20.23;52.70;97847.34;5047937;28;20492;-66
2022/07/07 08:43:56;;;;;;;7.05;2.95;;;;;;;19.80;53.63;97831.88;5035611;28;20045;-66
2022/07/07 08:46:23;;;;;;;7.00;2.50;;;;;;;19.76;54.49;97834.41;5027892;28;20052;-66
2022/07/07 08:48:51;;;;;;;5.47;2.03;;;;;;;19.56;55.05;97840.25;5027792;28;20037;-66
2022/07/07 08:51:17;;;;;;;3.95;1.90;;;;;;;19.38;55.09;97828.19;5021766;28;20522;-66
2022/07/07 08:53:46;;;;;;;3.15;1.67;;;;;;;19.68;54.98;97837.03;5034512;28;20041;-67
2022/07/07 08:56:14;;;;;;;3.45;1.85;;;;;;;19.50;56.05;97825.81;5027793;28;20041;-66
2022/07/07 08:58:42;;;;;;;5.35;1.60;;;;;;;19.68;55.22;97812.31;5029630;28;20412;-66
2022/07/07 09:01:28;;;;;;;3.08;1.80;;;;;;;19.90;54.19;97819.88;5030136;28;20582;-66
2022/07/07 09:03:54;;;;;;;8.15;2.72;;;;;;;19.23;57.35;97821.81;5030162;28;20045;-66
2022/07/07 09:06:21;;;;;;;3.63;2.13;;;;;;;18.51;59.43;97829.91;5023428;28;20497;-65
2022/07/07 09:08:51;;;;;;;7.15;2.00;;;;;;;18.42;61.10;97846.19;5018836;28;20120;-66
2022/07/07 09:11:44;;;;;;;5.57;2.00;;;;;;;18.21;63.05;97856.56;5030369;28;20064;-66
2022/07/07 09:14:16;;;;;;;3.33;2.15;;;;;;;18.46;62.59;97843.66;5028772;28;20065;-66
2022/07/07 09:16:43;;;;;;;8.25;3.25;;;;;;;17.61;64.77;97860.38;5029737;28;20045;-66
2022/07/07 09:19:21;;;;;;;4.97;2.70;;;;;;;17.48;65.44;97856.34;5028637;28;20033;-66
2022/07/07 09:21:48;;;;;;;4.40;2.47;;;;;;;17.54;65.50;97847.81;5030178;28;20053;-66
2022/07/07 09:24:15;;;;;;;4.85;2.45;;;;;;;17.61;65.17;97841.22;5029767;28;20064;-67
2022/07/07 09:26:47;;;;;;;6.57;2.95;;;;;;;17.60;65.23;97834.91;5029283;28;20556;-66
2022/07/07 09:29:20;;;;;;;4.63;2.40;;;;;;;17.71;64.97;97832.91;5016819;28;20092;-66
2022/07/07 09:32:01;;;;;;;3.85;1.90;;;;;;;17.68;65.00;97836.19;5019809;28;20045;-65
2022/07/07 09:34:31;;;;;;;4.82;2.05;;;;;;;17.83;64.59;97839.94;5049642;28;20045;-66
2022/07/07 09:39:49;;;;;;;5.20;1.50;;;;;;;18.52;62.23;97845.25;5025084;28;20048;-66
2022/07/07 09:42:36;;;;;;;3.42;1.83;;;;;;;18.35;61.42;97851.19;5029314;28;20128;-66
2022/07/07 09:45:07;;;;;;;4.20;1.63;;;;;;;18.93;60.48;97843.06;5029357;28;20041;-66
2022/07/07 09:47:34;;;;;;;3.33;1.88;;;;;;;18.52;61.03;97853.47;5029258;28;20115;-66
2022/07/07 09:50:07;;;;;;;4.07;1.63;;;;;;;18.88;61.11;97849.47;5028607;28;20041;-66
2022/07/07 09:52:36;;;;;;;5.63;1.70;;;;;;;18.72;61.28;97843.34;5029286;28;20049;-66
2022/07/07 09:55:08;;;;;;;3.47;1.90;;;;;;;18.98;61.32;97840.25;5030786;28;20049;-66
2022/07/07 09:57:34;;;;;;;;;;;;;;;19.33;59.36;97849.13;5030642;28;20056;-65
2022/07/07 10:00:01;;;;;;;3.25;1.80;;;;;;;19.81;57.73;97836.25;5026691;28;19944;-66
2022/07/07 10:02:37;;;;;;;6.55;2.10;;;;;;;19.98;57.46;97852.19;5025264;28;20053;-66
2022/07/07 10:05:05;;;;;;;4.68;1.80;;;;;;;20.33;56.50;97840.00;5023182;28;20072;-66
2022/07/07 10:07:34;;;;;;;5.55;1.75;;;;;;;19.83;58.28;97855.19;5029368;28;20230;-66
2022/07/07 10:10:06;;;;;;;3.92;1.70;;;;;;;19.78;57.83;97845.09;5028024;28;20043;-66
2022/07/07 10:12:38;;;;;;;4.05;1.70;;;;;;;19.76;57.77;97852.84;5034759;28;20049;-66
2022/07/07 10:15:11;;;;;;;5.55;1.65;;;;;;;19.69;57.51;97855.16;5033250;28;20041;-67
2022/07/07 10:17:39;;;;;;;5.32;1.65;;;;;;;19.88;57.23;97853.19;5028408;28;20049;-66
2022/07/07 10:20:07;;;;;;;2.30;1.45;;;;;;;19.84;57.81;97852.16;5028510;28;20572;-66
2022/07/07 10:22:36;;;;;;;3.10;1.63;;;;;;;19.87;57.88;97853.47;5028653;28;20048;-66
2022/07/07 10:25:07;;;;;;;3.15;1.58;;;;;;;19.87;57.04;97864.47;5027897;28;20182;-66
2022/07/07 10:27:33;;;;;;;4.65;1.65;;;;;;;19.44;58.25;97862.69;5040548;28;20542;-66
2022/07/07 10:30:03;;;;;;;9.23;2.00;;;;;;;19.39;58.74;97855.34;5037313;28;20041;-66
2022/07/07 10:32:59;;;;;;;3.55;1.05;;;;;;;19.22;58.75;97862.19;5036853;28;20511;-66
2022/07/07 10:35:27;;;;;;;2.65;1.17;;;;;;;19.28;58.01;97865.69;5040991;28;20131;-66
2022/07/07 10:37:55;;;;;;;3.92;1.23;;;;;;;18.74;59.70;97863.06;5015081;28;20564;-66
2022/07/07 10:40:27;;;;;;;4.03;1.42;;;;;;;18.65;60.06;97879.34;5031439;28;20033;-66
2022/07/07 10:43:22;;;;;;;3.53;1.77;;;;;;;18.73;59.96;97880.66;5035443;28;20068;-66
2022/07/07 10:45:52;;;;;;;2.53;1.42;;;;;;;18.83;60.09;97879.69;5034296;28;20045;-66
2022/07/07 10:48:52;;;;;;;4.55;2.15;;;;;;;19.26;58.86;97880.78;5025436;28;20060;-66
2022/07/07 10:51:20;;;;;;;3.65;1.40;;;;;;;19.55;58.59;97875.16;5013078;28;20375;-66
2022/07/07 10:54:10;;;;;;;5.10;1.48;;;;;;;20.07;56.98;97879.81;5026004;28;20053;-66
2022/07/07 10:57:00;;;;;;;3.45;1.50;;;;;;;19.98;56.39;97884.34;5033650;28;20053;-66
2022/07/07 10:59:28;;;;;;;3.60;1.70;;;;;;;19.66;56.93;97872.22;5024335;28;20083;-66
2022/07/07 11:02:03;;;;;;;3.50;1.58;;;;;;;20.07;56.46;97877.06;5027541;28;20053;-66
2022/07/07 11:04:41;;;;;;;4.90;1.80;;;;;;;19.79;56.54;97878.91;5027572;28;20049;-66
2022/07/07 11:07:14;;;;;;;4.40;1.95;;;;;;;19.46;56.77;97882.44;5019835;28;20540;-65
2022/07/07 11:10:05;;;;;;;5.43;1.80;;;;;;;19.57;56.40;97885.84;5033433;28;20086;-65
2022/07/07 11:12:38;;;;;;;5.30;2.00;;;;;;;19.48;57.45;97880.19;5038077;28;20064;-66
2022/07/07 11:15:30;;;;;;;4.07;1.80;;;;;;;19.43;57.60;97883.84;5027277;28;20048;-65
2022/07/07 11:17:57;;;;;;;6.15;2.17;;;;;;;19.35;57.74;97882.56;5027832;28;20535;-66
2022/07/07 11:20:25;;;;;;;5.30;1.60;;;;;;;19.21;58.04;97890.72;5027723;28;20585;-66
2022/07/07 11:22:54;;;;;;;4.18;1.83;;;;;;;19.19;58.31;97881.16;5026988;28;20049;-66
2022/07/07 11:25:22;;;;;;;4.97;1.98;;;;;;;19.34;58.02;97877.38;5027427;28;20044;-66
2022/07/07 11:27:50;;;;;;;6.07;1.88;;;;;;;19.27;57.70;97882.44;5027042;28;20076;-66
2022/07/07 11:30:24;;;;;;;6.43;1.90;;;;;;;19.17;58.21;97872.41;5026772;28;20050;-66
2022/07/07 11:32:51;;;;;;;6.68;2.00;;;;;;;19.61;57.23;97881.38;5026123;28;20045;-66
2022/07/07 11:35:18;;;;;;;4.05;1.90;;;;;;;19.65;56.09;97879.66;5007442;28;20450;-66
2022/07/07 11:37:46;;;;;;;6.53;2.40;;;;;;;19.68;56.80;97875.50;5007622;28;20422;-66
2022/07/07 11:40:18;;;;;;;5.13;2.03;;;;;;;19.52;57.00;97875.75;5007483;28;20042;-66
2022/07/07 11:42:45;;;;;;;4.65;2.08;;;;;;;19.05;57.96;97872.84;5007797;28;20497;-65